sensor_id;sensor_type;location;lat;lon;timestamp;P1;durP1;ratioP1;P2;durP2;ratioP2
34896;SDS011;43407;51.828;-2.298;2023-04-03T00:00:09;1.88;;;1.48;;
34896;SDS011;43407;51.828;-2.298;2023-04-03T00:02:35;5.63;;;1.90;;
34896;SDS011;43407;51.828;-2.298;2023-04-03T00:05:01;3.42;;;1.70;;
34896;SDS011;43407;51.828;-2.298;2023-04-03T00:07:27;2.30;;;1.70;;
34896;SDS011;43407;51.828;-2.298;2023-04-03T00:09:53;3.10;;;1.60;;
34896;SDS011;43407;51.828;-2.298;2023-04-03T00:12:18;3.05;;;1.73;;
34896;SDS011;43407;51.828;-2.298;2023-04-03T00:14:44;5.25;;;1.70;;
34896;SDS011;43407;51.828;-2.298;2023-04-03T00:17:10;3.90;;;1.85;;
34896;SDS011;43407;51.828;-2.298;2023-04-03T00:19:35;3.10;;;1.70;;
34896;SDS011;43407;51.828;-2.298;2023-04-03T00:22:01;2.63;;;1.65;;
34896;SDS011;43407;51.828;-2.298;2023-04-03T00:24:27;2.53;;;1.70;;
34896;SDS011;43407;51.828;-2.298;2023-04-03T00:26:52;4.32;;;1.88;;
34896;SDS011;43407;51.828;-2.298;2023-04-03T00:29:18;4.95;;;1.70;;
34896;SDS011;43407;51.828;-2.298;2023-04-03T00:31:44;2.45;;;1.70;;
34896;SDS011;43407;51.828;-2.298;2023-04-03T00:34:10;4.95;;;1.80;;
34896;SDS011;43407;51.828;-2.298;2023-04-03T00:36:35;4.10;;;1.67;;
34896;SDS011;43407;51.828;-2.298;2023-04-03T00:39:01;4.22;;;2.00;;
34896;SDS011;43407;51.828;-2.298;2023-04-03T00:41:27;2.65;;;1.73;;
34896;SDS011;43407;51.828;-2.298;2023-04-03T00:43:53;3.22;;;1.90;;
34896;SDS011;43407;51.828;-2.298;2023-04-03T00:46:18;3.80;;;1.63;;
34896;SDS011;43407;51.828;-2.298;2023-04-03T00:48:44;2.90;;;1.73;;
34896;SDS011;43407;51.828;-2.298;2023-04-03T00:51:16;2.40;;;1.73;;
34896;SDS011;43407;51.828;-2.298;2023-04-03T00:56:15;2.17;;;1.27;;
34896;SDS011;43407;51.828;-2.298;2023-04-03T00:58:49;2.97;;;1.83;;
34896;SDS011;43407;51.828;-2.298;2023-04-03T01:01:26;5.07;;;2.10;;
34896;SDS011;43407;51.828;-2.298;2023-04-03T01:03:53;4.32;;;1.90;;
34896;SDS011;43407;51.828;-2.298;2023-04-03T01:06:26;3.72;;;1.90;;
34896;SDS011;43407;51.828;-2.298;2023-04-03T01:08:53;4.82;;;1.65;;
34896;SDS011;43407;51.828;-2.298;2023-04-03T01:11:20;3.28;;;1.63;;
34896;SDS011;43407;51.828;-2.298;2023-04-03T01:13:46;4.65;;;1.90;;
34896;SDS011;43407;51.828;-2.298;2023-04-03T01:16:12;3.25;;;2.10;;
34896;SDS011;43407;51.828;-2.298;2023-04-03T01:18:38;4.70;;;2.00;;
34896;SDS011;43407;51.828;-2.298;2023-04-03T01:21:28;2.88;;;1.80;;
34896;SDS011;43407;51.828;-2.298;2023-04-03T01:26:58;4.25;;;1.50;;
34896;SDS011;43407;51.828;-2.298;2023-04-03T01:29:24;2.00;;;1.80;;
34896;SDS011;43407;51.828;-2.298;2023-04-03T01:31:52;3.08;;;1.88;;
34896;SDS011;43407;51.828;-2.298;2023-04-03T01:34:19;2.78;;;1.70;;
34896;SDS011;43407;51.828;-2.298;2023-04-03T01:36:45;4.63;;;2.10;;
34896;SDS011;43407;51.828;-2.298;2023-04-03T01:39:11;3.55;;;2.13;;
34896;SDS011;43407;51.828;-2.298;2023-04-03T01:41:37;3.97;;;1.92;;
34896;SDS011;43407;51.828;-2.298;2023-04-03T01:44:03;3.33;;;1.67;;
34896;SDS011;43407;51.828;-2.298;2023-04-03T01:46:29;3.03;;;1.80;;
34896;SDS011;43407;51.828;-2.298;2023-04-03T01:48:54;4.65;;;1.90;;
34896;SDS011;43407;51.828;-2.298;2023-04-03T01:51:20;6.43;;;2.30;;
34896;SDS011;43407;51.828;-2.298;2023-04-03T01:53:46;2.70;;;2.00;;
34896;SDS011;43407;51.828;-2.298;2023-04-03T01:56:11;2.08;;;1.73;;
34896;SDS011;43407;51.828;-2.298;2023-04-03T01:58:37;3.60;;;1.85;;
34896;SDS011;43407;51.828;-2.298;2023-04-03T02:01:03;2.47;;;1.92;;
34896;SDS011;43407;51.828;-2.298;2023-04-03T02:03:29;2.50;;;1.98;;
34896;SDS011;43407;51.828;-2.298;2023-04-03T02:05:54;4.22;;;1.90;;
34896;SDS011;43407;51.828;-2.298;2023-04-03T02:08:20;2.83;;;1.95;;
34896;SDS011;43407;51.828;-2.298;2023-04-03T02:10:47;2.13;;;1.55;;
34896;SDS011;43407;51.828;-2.298;2023-04-03T02:13:13;2.38;;;1.52;;
34896;SDS011;43407;51.828;-2.298;2023-04-03T02:15:38;3.42;;;2.15;;
34896;SDS011;43407;51.828;-2.298;2023-04-03T02:18:05;7.50;;;1.88;;
34896;SDS011;43407;51.828;-2.298;2023-04-03T02:20:31;2.53;;;1.90;;
34896;SDS011;43407;51.828;-2.298;2023-04-03T02:22:57;2.33;;;2.00;;
34896;SDS011;43407;51.828;-2.298;2023-04-03T02:25:22;2.67;;;2.00;;
34896;SDS011;43407;51.828;-2.298;2023-04-03T02:27:48;3.40;;;1.60;;
34896;SDS011;43407;51.828;-2.298;2023-04-03T02:30:14;3.17;;;1.92;;
34896;SDS011;43407;51.828;-2.298;2023-04-03T02:32:40;2.78;;;1.90;;
34896;SDS011;43407;51.828;-2.298;2023-04-03T02:35:07;4.05;;;1.70;;
34896;SDS011;43407;51.828;-2.298;2023-04-03T02:37:33;6.22;;;2.35;;
34896;SDS011;43407;51.828;-2.298;2023-04-03T02:39:59;5.85;;;3.20;;
34896;SDS011;43407;51.828;-2.298;2023-04-03T02:42:25;5.60;;;2.78;;
34896;SDS011;43407;51.828;-2.298;2023-04-03T02:44:51;6.25;;;2.92;;
34896;SDS011;43407;51.828;-2.298;2023-04-03T02:47:16;8.30;;;3.40;;
34896;SDS011;43407;51.828;-2.298;2023-04-03T02:49:42;5.30;;;3.47;;
34896;SDS011;43407;51.828;-2.298;2023-04-03T02:52:11;5.72;;;3.53;;
34896;SDS011;43407;51.828;-2.298;2023-04-03T02:54:37;6.38;;;3.53;;
34896;SDS011;43407;51.828;-2.298;2023-04-03T02:57:03;6.50;;;3.88;;
34896;SDS011;43407;51.828;-2.298;2023-04-03T02:59:29;9.20;;;4.10;;
34896;SDS011;43407;51.828;-2.298;2023-04-03T03:01:55;7.70;;;4.63;;
34896;SDS011;43407;51.828;-2.298;2023-04-03T03:04:21;11.70;;;4.45;;
34896;SDS011;43407;51.828;-2.298;2023-04-03T03:06:47;7.20;;;4.47;;
34896;SDS011;43407;51.828;-2.298;2023-04-03T03:09:12;10.68;;;4.70;;
34896;SDS011;43407;51.828;-2.298;2023-04-03T03:11:38;7.63;;;4.45;;
34896;SDS011;43407;51.828;-2.298;2023-04-03T03:14:04;6.32;;;4.25;;
34896;SDS011;43407;51.828;-2.298;2023-04-03T03:16:30;9.85;;;4.80;;
34896;SDS011;43407;51.828;-2.298;2023-04-03T03:18:56;6.93;;;4.50;;
34896;SDS011;43407;51.828;-2.298;2023-04-03T03:21:22;8.80;;;5.00;;
34896;SDS011;43407;51.828;-2.298;2023-04-03T03:23:47;7.75;;;4.55;;
34896;SDS011;43407;51.828;-2.298;2023-04-03T03:26:13;11.95;;;4.65;;
34896;SDS011;43407;51.828;-2.298;2023-04-03T03:28:39;7.22;;;4.13;;
34896;SDS011;43407;51.828;-2.298;2023-04-03T03:31:06;8.57;;;4.72;;
34896;SDS011;43407;51.828;-2.298;2023-04-03T03:33:32;11.02;;;4.60;;
34896;SDS011;43407;51.828;-2.298;2023-04-03T03:35:57;8.10;;;4.70;;
34896;SDS011;43407;51.828;-2.298;2023-04-03T03:38:23;5.78;;;3.92;;
34896;SDS011;43407;51.828;-2.298;2023-04-03T03:40:49;6.65;;;3.83;;
34896;SDS011;43407;51.828;-2.298;2023-04-03T03:43:16;7.20;;;4.05;;
34896;SDS011;43407;51.828;-2.298;2023-04-03T03:45:42;5.65;;;3.72;;
34896;SDS011;43407;51.828;-2.298;2023-04-03T03:48:08;5.90;;;3.42;;
34896;SDS011;43407;51.828;-2.298;2023-04-03T03:50:33;7.28;;;3.85;;
34896;SDS011;43407;51.828;-2.298;2023-04-03T03:52:59;4.80;;;3.47;;
34896;SDS011;43407;51.828;-2.298;2023-04-03T03:55:25;7.60;;;4.32;;
34896;SDS011;43407;51.828;-2.298;2023-04-03T03:57:51;6.40;;;3.45;;
34896;SDS011;43407;51.828;-2.298;2023-04-03T04:00:16;7.15;;;3.97;;
34896;SDS011;43407;51.828;-2.298;2023-04-03T04:02:42;6.15;;;4.35;;
34896;SDS011;43407;51.828;-2.298;2023-04-03T04:05:08;7.82;;;4.32;;
34896;SDS011;43407;51.828;-2.298;2023-04-03T04:07:33;9.25;;;4.63;;
34896;SDS011;43407;51.828;-2.298;2023-04-03T04:09:59;7.78;;;4.40;;
34896;SDS011;43407;51.828;-2.298;2023-04-03T04:12:25;11.55;;;4.95;;
34896;SDS011;43407;51.828;-2.298;2023-04-03T04:14:51;8.77;;;5.35;;
34896;SDS011;43407;51.828;-2.298;2023-04-03T04:17:16;8.40;;;4.63;;
34896;SDS011;43407;51.828;-2.298;2023-04-03T04:19:42;10.38;;;4.80;;
34896;SDS011;43407;51.828;-2.298;2023-04-03T04:22:08;8.88;;;5.47;;
34896;SDS011;43407;51.828;-2.298;2023-04-03T04:24:34;8.05;;;5.32;;
34896;SDS011;43407;51.828;-2.298;2023-04-03T04:26:59;11.02;;;5.55;;
34896;SDS011;43407;51.828;-2.298;2023-04-03T04:29:25;9.32;;;5.80;;
34896;SDS011;43407;51.828;-2.298;2023-04-03T04:31:50;12.00;;;6.05;;
34896;SDS011;43407;51.828;-2.298;2023-04-03T04:34:16;12.80;;;6.47;;
34896;SDS011;43407;51.828;-2.298;2023-04-03T04:36:42;14.20;;;6.07;;
34896;SDS011;43407;51.828;-2.298;2023-04-03T04:39:07;8.25;;;5.90;;
34896;SDS011;43407;51.828;-2.298;2023-04-03T04:41:33;9.43;;;5.90;;
34896;SDS011;43407;51.828;-2.298;2023-04-03T04:43:59;9.45;;;5.55;;
34896;SDS011;43407;51.828;-2.298;2023-04-03T04:46:25;7.72;;;5.18;;
34896;SDS011;43407;51.828;-2.298;2023-04-03T04:48:51;8.45;;;4.88;;
34896;SDS011;43407;51.828;-2.298;2023-04-03T04:51:17;6.72;;;4.32;;
34896;SDS011;43407;51.828;-2.298;2023-04-03T04:53:43;6.82;;;4.68;;
34896;SDS011;43407;51.828;-2.298;2023-04-03T04:56:08;7.63;;;4.35;;
34896;SDS011;43407;51.828;-2.298;2023-04-03T04:58:34;5.70;;;3.95;;
34896;SDS011;43407;51.828;-2.298;2023-04-03T05:01:01;4.40;;;3.55;;
34896;SDS011;43407;51.828;-2.298;2023-04-03T05:03:30;5.43;;;4.22;;
34896;SDS011;43407;51.828;-2.298;2023-04-03T05:05:56;6.78;;;3.75;;
34896;SDS011;43407;51.828;-2.298;2023-04-03T05:08:22;6.07;;;4.00;;
34896;SDS011;43407;51.828;-2.298;2023-04-03T05:10:48;8.30;;;4.20;;
34896;SDS011;43407;51.828;-2.298;2023-04-03T05:13:14;9.50;;;4.00;;
34896;SDS011;43407;51.828;-2.298;2023-04-03T05:15:39;7.38;;;4.07;;
34896;SDS011;43407;51.828;-2.298;2023-04-03T05:18:05;9.80;;;4.20;;
34896;SDS011;43407;51.828;-2.298;2023-04-03T05:20:31;8.90;;;4.00;;
34896;SDS011;43407;51.828;-2.298;2023-04-03T05:22:57;5.93;;;4.30;;
34896;SDS011;43407;51.828;-2.298;2023-04-03T05:25:23;5.80;;;4.15;;
34896;SDS011;43407;51.828;-2.298;2023-04-03T05:27:49;7.28;;;3.72;;
34896;SDS011;43407;51.828;-2.298;2023-04-03T05:30:14;5.40;;;4.00;;
34896;SDS011;43407;51.828;-2.298;2023-04-03T05:32:40;5.25;;;3.83;;
34896;SDS011;43407;51.828;-2.298;2023-04-03T05:35:06;6.32;;;4.00;;
34896;SDS011;43407;51.828;-2.298;2023-04-03T05:37:33;9.93;;;3.65;;
34896;SDS011;43407;51.828;-2.298;2023-04-03T05:39:58;4.75;;;3.53;;
34896;SDS011;43407;51.828;-2.298;2023-04-03T05:42:24;4.38;;;3.00;;
34896;SDS011;43407;51.828;-2.298;2023-04-03T05:44:50;6.10;;;3.70;;
34896;SDS011;43407;51.828;-2.298;2023-04-03T05:47:16;5.15;;;3.45;;
34896;SDS011;43407;51.828;-2.298;2023-04-03T05:49:42;8.98;;;3.42;;
34896;SDS011;43407;51.828;-2.298;2023-04-03T05:52:31;5.78;;;3.20;;
34896;SDS011;43407;51.828;-2.298;2023-04-03T05:54:57;5.90;;;3.13;;
34896;SDS011;43407;51.828;-2.298;2023-04-03T05:57:23;5.22;;;3.42;;
34896;SDS011;43407;51.828;-2.298;2023-04-03T05:59:49;10.52;;;3.13;;
34896;SDS011;43407;51.828;-2.298;2023-04-03T06:02:16;4.75;;;3.35;;
34896;SDS011;43407;51.828;-2.298;2023-04-03T06:04:45;5.65;;;3.13;;
34896;SDS011;43407;51.828;-2.298;2023-04-03T06:07:15;5.10;;;3.08;;
34896;SDS011;43407;51.828;-2.298;2023-04-03T06:09:47;4.18;;;3.10;;
34896;SDS011;43407;51.828;-2.298;2023-04-03T06:12:13;4.18;;;2.65;;
34896;SDS011;43407;51.828;-2.298;2023-04-03T06:14:40;3.63;;;2.20;;
34896;SDS011;43407;51.828;-2.298;2023-04-03T06:17:06;4.13;;;2.63;;
34896;SDS011;43407;51.828;-2.298;2023-04-03T06:19:33;3.78;;;2.15;;
34896;SDS011;43407;51.828;-2.298;2023-04-03T06:21:59;9.57;;;2.92;;
34896;SDS011;43407;51.828;-2.298;2023-04-03T06:24:25;4.65;;;2.40;;
34896;SDS011;43407;51.828;-2.298;2023-04-03T06:26:51;4.50;;;2.60;;
34896;SDS011;43407;51.828;-2.298;2023-04-03T06:29:17;3.05;;;2.20;;
34896;SDS011;43407;51.828;-2.298;2023-04-03T06:31:44;8.93;;;2.45;;
34896;SDS011;43407;51.828;-2.298;2023-04-03T06:34:10;10.77;;;2.53;;
34896;SDS011;43407;51.828;-2.298;2023-04-03T06:36:37;12.45;;;2.40;;
34896;SDS011;43407;51.828;-2.298;2023-04-03T06:39:03;6.30;;;2.58;;
34896;SDS011;43407;51.828;-2.298;2023-04-03T06:41:29;5.53;;;2.40;;
34896;SDS011;43407;51.828;-2.298;2023-04-03T06:43:55;3.47;;;2.50;;
34896;SDS011;43407;51.828;-2.298;2023-04-03T06:46:22;4.40;;;2.60;;
34896;SDS011;43407;51.828;-2.298;2023-04-03T06:48:49;9.10;;;2.30;;
34896;SDS011;43407;51.828;-2.298;2023-04-03T06:51:22;12.90;;;2.65;;
34896;SDS011;43407;51.828;-2.298;2023-04-03T06:53:49;5.22;;;2.30;;
34896;SDS011;43407;51.828;-2.298;2023-04-03T06:56:16;5.55;;;2.65;;
34896;SDS011;43407;51.828;-2.298;2023-04-03T06:58:43;5.00;;;2.72;;
34896;SDS011;43407;51.828;-2.298;2023-04-03T07:01:09;4.03;;;3.05;;
34896;SDS011;43407;51.828;-2.298;2023-04-03T07:03:37;4.75;;;2.60;;
34896;SDS011;43407;51.828;-2.298;2023-04-03T07:06:05;4.88;;;2.88;;
34896;SDS011;43407;51.828;-2.298;2023-04-03T07:08:32;5.35;;;2.60;;
34896;SDS011;43407;51.828;-2.298;2023-04-03T07:10:59;4.45;;;2.40;;
34896;SDS011;43407;51.828;-2.298;2023-04-03T07:13:24;6.03;;;2.88;;
34896;SDS011;43407;51.828;-2.298;2023-04-03T07:15:50;6.45;;;3.10;;
34896;SDS011;43407;51.828;-2.298;2023-04-03T07:18:16;6.30;;;3.50;;
34896;SDS011;43407;51.828;-2.298;2023-04-03T07:20:44;6.05;;;2.70;;
34896;SDS011;43407;51.828;-2.298;2023-04-03T07:23:10;7.47;;;3.45;;
34896;SDS011;43407;51.828;-2.298;2023-04-03T07:25:36;6.03;;;3.08;;
34896;SDS011;43407;51.828;-2.298;2023-04-03T07:28:03;5.20;;;2.78;;
34896;SDS011;43407;51.828;-2.298;2023-04-03T07:30:28;6.10;;;2.70;;
34896;SDS011;43407;51.828;-2.298;2023-04-03T07:32:54;5.68;;;2.80;;
34896;SDS011;43407;51.828;-2.298;2023-04-03T07:35:20;4.47;;;2.90;;
34896;SDS011;43407;51.828;-2.298;2023-04-03T07:37:46;2.65;;;2.40;;
34896;SDS011;43407;51.828;-2.298;2023-04-03T07:40:12;4.95;;;2.78;;
34896;SDS011;43407;51.828;-2.298;2023-04-03T07:42:37;3.28;;;2.50;;
34896;SDS011;43407;51.828;-2.298;2023-04-03T07:45:03;4.30;;;2.58;;
34896;SDS011;43407;51.828;-2.298;2023-04-03T07:47:29;5.57;;;2.20;;
34896;SDS011;43407;51.828;-2.298;2023-04-03T07:49:56;4.75;;;2.72;;
34896;SDS011;43407;51.828;-2.298;2023-04-03T07:52:22;4.57;;;1.95;;
34896;SDS011;43407;51.828;-2.298;2023-04-03T07:54:48;3.00;;;1.92;;
34896;SDS011;43407;51.828;-2.298;2023-04-03T07:57:14;8.40;;;2.47;;
34896;SDS011;43407;51.828;-2.298;2023-04-03T07:59:40;3.80;;;2.22;;
34896;SDS011;43407;51.828;-2.298;2023-04-03T08:02:09;10.20;;;2.25;;
34896;SDS011;43407;51.828;-2.298;2023-04-03T08:04:35;7.97;;;2.05;;
34896;SDS011;43407;51.828;-2.298;2023-04-03T08:07:01;3.03;;;2.05;;
34896;SDS011;43407;51.828;-2.298;2023-04-03T08:09:27;2.97;;;1.90;;
34896;SDS011;43407;51.828;-2.298;2023-04-03T08:11:53;4.88;;;1.77;;
34896;SDS011;43407;51.828;-2.298;2023-04-03T08:14:19;6.90;;;2.05;;
34896;SDS011;43407;51.828;-2.298;2023-04-03T08:16:46;5.43;;;2.00;;
34896;SDS011;43407;51.828;-2.298;2023-04-03T08:19:12;2.72;;;1.90;;
34896;SDS011;43407;51.828;-2.298;2023-04-03T08:21:41;17.10;;;1.98;;
34896;SDS011;43407;51.828;-2.298;2023-04-03T08:24:07;5.80;;;2.15;;
34896;SDS011;43407;51.828;-2.298;2023-04-03T08:26:33;4.13;;;1.75;;
34896;SDS011;43407;51.828;-2.298;2023-04-03T08:29:00;5.07;;;1.63;;
34896;SDS011;43407;51.828;-2.298;2023-04-03T08:31:26;6.20;;;2.00;;
34896;SDS011;43407;51.828;-2.298;2023-04-03T08:33:51;3.00;;;1.60;;
34896;SDS011;43407;51.828;-2.298;2023-04-03T08:36:19;4.60;;;2.08;;
34896;SDS011;43407;51.828;-2.298;2023-04-03T08:38:46;3.47;;;1.83;;
34896;SDS011;43407;51.828;-2.298;2023-04-03T08:46:52;4.43;;;2.00;;
34896;SDS011;43407;51.828;-2.298;2023-04-03T08:52:16;6.45;;;2.17;;
34896;SDS011;43407;51.828;-2.298;2023-04-03T08:55:00;4.00;;;1.80;;
34896;SDS011;43407;51.828;-2.298;2023-04-03T08:57:33;3.30;;;1.67;;
34896;SDS011;43407;51.828;-2.298;2023-04-03T09:00:04;3.97;;;1.70;;
34896;SDS011;43407;51.828;-2.298;2023-04-03T09:02:43;8.30;;;2.17;;
34896;SDS011;43407;51.828;-2.298;2023-04-03T09:05:15;3.63;;;1.80;;
34896;SDS011;43407;51.828;-2.298;2023-04-03T09:07:46;2.92;;;1.80;;
34896;SDS011;43407;51.828;-2.298;2023-04-03T09:10:15;4.82;;;1.92;;
34896;SDS011;43407;51.828;-2.298;2023-04-03T09:12:58;2.17;;;1.45;;
34896;SDS011;43407;51.828;-2.298;2023-04-03T09:15:26;3.97;;;1.85;;
34896;SDS011;43407;51.828;-2.298;2023-04-03T09:23:50;5.20;;;1.40;;
34896;SDS011;43407;51.828;-2.298;2023-04-03T09:26:18;4.32;;;1.65;;
34896;SDS011;43407;51.828;-2.298;2023-04-03T09:28:45;7.30;;;1.65;;
34896;SDS011;43407;51.828;-2.298;2023-04-03T09:31:21;4.38;;;1.40;;
34896;SDS011;43407;51.828;-2.298;2023-04-03T09:33:53;3.47;;;1.27;;
34896;SDS011;43407;51.828;-2.298;2023-04-03T09:39:25;5.85;;;1.60;;
34896;SDS011;43407;51.828;-2.298;2023-04-03T09:42:03;6.05;;;1.73;;
34896;SDS011;43407;51.828;-2.298;2023-04-03T09:44:34;4.15;;;1.60;;
34896;SDS011;43407;51.828;-2.298;2023-04-03T09:52:39;5.63;;;1.55;;
34896;SDS011;43407;51.828;-2.298;2023-04-03T09:55:22;4.82;;;1.65;;
34896;SDS011;43407;51.828;-2.298;2023-04-03T09:58:02;7.95;;;1.50;;
34896;SDS011;43407;51.828;-2.298;2023-04-03T10:00:36;6.53;;;1.42;;
34896;SDS011;43407;51.828;-2.298;2023-04-03T10:03:03;4.32;;;1.33;;
34896;SDS011;43407;51.828;-2.298;2023-04-03T10:08:25;4.30;;;1.33;;
34896;SDS011;43407;51.828;-2.298;2023-04-03T10:11:06;2.55;;;1.55;;
34896;SDS011;43407;51.828;-2.298;2023-04-03T10:13:37;5.43;;;1.58;;
34896;SDS011;43407;51.828;-2.298;2023-04-03T10:16:16;3.47;;;1.50;;
34896;SDS011;43407;51.828;-2.298;2023-04-03T10:24:06;3.38;;;1.50;;
34896;SDS011;43407;51.828;-2.298;2023-04-03T10:34:48;6.18;;;1.67;;
34896;SDS011;43407;51.828;-2.298;2023-04-03T10:37:21;5.25;;;1.70;;
34896;SDS011;43407;51.828;-2.298;2023-04-03T10:40:50;5.00;;;1.52;;
34896;SDS011;43407;51.828;-2.298;2023-04-03T10:43:15;2.70;;;1.70;;
34896;SDS011;43407;51.828;-2.298;2023-04-03T10:51:23;7.20;;;1.88;;
34896;SDS011;43407;51.828;-2.298;2023-04-03T10:54:08;3.13;;;1.58;;
34896;SDS011;43407;51.828;-2.298;2023-04-03T11:01:48;5.45;;;1.52;;
34896;SDS011;43407;51.828;-2.298;2023-04-03T11:04:17;2.97;;;1.63;;
34896;SDS011;43407;51.828;-2.298;2023-04-03T11:06:55;4.95;;;2.13;;
34896;SDS011;43407;51.828;-2.298;2023-04-03T11:09:30;8.63;;;2.03;;
34896;SDS011;43407;51.828;-2.298;2023-04-03T11:12:03;5.80;;;1.77;;
34896;SDS011;43407;51.828;-2.298;2023-04-03T11:14:32;5.88;;;1.75;;
34896;SDS011;43407;51.828;-2.298;2023-04-03T11:19:57;5.25;;;1.88;;
34896;SDS011;43407;51.828;-2.298;2023-04-03T11:22:28;2.87;;;1.70;;
34896;SDS011;43407;51.828;-2.298;2023-04-03T11:25:06;6.10;;;2.00;;
34896;SDS011;43407;51.828;-2.298;2023-04-03T11:27:49;5.35;;;2.20;;
34896;SDS011;43407;51.828;-2.298;2023-04-03T11:30:21;4.22;;;1.85;;
34896;SDS011;43407;51.828;-2.298;2023-04-03T11:35:57;2.35;;;1.67;;
34896;SDS011;43407;51.828;-2.298;2023-04-03T11:38:30;5.38;;;1.70;;
34896;SDS011;43407;51.828;-2.298;2023-04-03T11:41:01;6.03;;;1.92;;
34896;SDS011;43407;51.828;-2.298;2023-04-03T11:43:29;4.22;;;1.70;;
34896;SDS011;43407;51.828;-2.298;2023-04-03T11:46:00;2.97;;;1.33;;
34896;SDS011;43407;51.828;-2.298;2023-04-03T11:51:40;5.68;;;1.92;;
34896;SDS011;43407;51.828;-2.298;2023-04-03T11:53:54;3.38;;;1.70;;
34896;SDS011;43407;51.828;-2.298;2023-04-03T11:56:58;7.30;;;2.22;;
34896;SDS011;43407;51.828;-2.298;2023-04-03T11:59:24;4.28;;;1.95;;
34896;SDS011;43407;51.828;-2.298;2023-04-03T12:01:50;5.70;;;2.40;;
34896;SDS011;43407;51.828;-2.298;2023-04-03T12:04:18;3.97;;;1.83;;
34896;SDS011;43407;51.828;-2.298;2023-04-03T12:09:24;5.95;;;2.40;;
34896;SDS011;43407;51.828;-2.298;2023-04-03T12:11:59;5.30;;;2.30;;
34896;SDS011;43407;51.828;-2.298;2023-04-03T12:14:26;5.75;;;2.00;;
34896;SDS011;43407;51.828;-2.298;2023-04-03T12:16:54;5.72;;;2.50;;
34896;SDS011;43407;51.828;-2.298;2023-04-03T12:19:33;4.95;;;2.10;;
34896;SDS011;43407;51.828;-2.298;2023-04-03T12:37:29;4.75;;;1.80;;
34896;SDS011;43407;51.828;-2.298;2023-04-03T12:48:25;6.32;;;2.47;;
34896;SDS011;43407;51.828;-2.298;2023-04-03T12:50:53;5.47;;;2.00;;
34896;SDS011;43407;51.828;-2.298;2023-04-03T12:53:27;5.32;;;2.30;;
34896;SDS011;43407;51.828;-2.298;2023-04-03T12:56:19;3.90;;;2.03;;
34896;SDS011;43407;51.828;-2.298;2023-04-03T12:58:48;3.25;;;1.73;;
34896;SDS011;43407;51.828;-2.298;2023-04-03T13:01:22;2.55;;;1.55;;
34896;SDS011;43407;51.828;-2.298;2023-04-03T13:03:56;5.45;;;2.05;;
34896;SDS011;43407;51.828;-2.298;2023-04-03T13:06:23;5.97;;;2.10;;
34896;SDS011;43407;51.828;-2.298;2023-04-03T13:08:52;4.07;;;1.70;;
34896;SDS011;43407;51.828;-2.298;2023-04-03T13:11:22;3.53;;;1.95;;
34896;SDS011;43407;51.828;-2.298;2023-04-03T13:13:55;6.70;;;2.25;;
34896;SDS011;43407;51.828;-2.298;2023-04-03T13:16:26;4.43;;;1.98;;
34896;SDS011;43407;51.828;-2.298;2023-04-03T13:18:52;4.07;;;2.55;;
34896;SDS011;43407;51.828;-2.298;2023-04-03T13:21:19;3.25;;;1.90;;
34896;SDS011;43407;51.828;-2.298;2023-04-03T13:23:49;6.60;;;2.60;;
34896;SDS011;43407;51.828;-2.298;2023-04-03T13:26:17;4.10;;;2.45;;
34896;SDS011;43407;51.828;-2.298;2023-04-03T13:28:44;5.10;;;2.47;;
34896;SDS011;43407;51.828;-2.298;2023-04-03T13:33:56;4.40;;;1.70;;
34896;SDS011;43407;51.828;-2.298;2023-04-03T13:36:30;6.18;;;2.10;;
34896;SDS011;43407;51.828;-2.298;2023-04-03T13:42:02;7.95;;;2.58;;
34896;SDS011;43407;51.828;-2.298;2023-04-03T13:47:53;4.78;;;1.90;;
34896;SDS011;43407;51.828;-2.298;2023-04-03T13:50:32;6.15;;;2.63;;
34896;SDS011;43407;51.828;-2.298;2023-04-03T13:53:02;5.88;;;2.22;;
34896;SDS011;43407;51.828;-2.298;2023-04-03T13:55:39;6.57;;;2.10;;
34896;SDS011;43407;51.828;-2.298;2023-04-03T13:58:26;4.10;;;2.03;;
34896;SDS011;43407;51.828;-2.298;2023-04-03T14:00:55;6.47;;;2.15;;
34896;SDS011;43407;51.828;-2.298;2023-04-03T14:03:33;3.97;;;2.20;;
34896;SDS011;43407;51.828;-2.298;2023-04-03T14:06:06;3.45;;;2.35;;
34896;SDS011;43407;51.828;-2.298;2023-04-03T14:08:33;4.18;;;2.10;;
34896;SDS011;43407;51.828;-2.298;2023-04-03T14:10:59;3.22;;;1.85;;
34896;SDS011;43407;51.828;-2.298;2023-04-03T14:13:25;5.45;;;2.50;;
34896;SDS011;43407;51.828;-2.298;2023-04-03T14:15:51;4.93;;;1.80;;
34896;SDS011;43407;51.828;-2.298;2023-04-03T14:18:17;6.35;;;2.55;;
34896;SDS011;43407;51.828;-2.298;2023-04-03T14:20:44;6.28;;;2.17;;
34896;SDS011;43407;51.828;-2.298;2023-04-03T14:23:10;4.95;;;2.40;;
34896;SDS011;43407;51.828;-2.298;2023-04-03T14:25:36;7.55;;;2.63;;
34896;SDS011;43407;51.828;-2.298;2023-04-03T14:28:19;6.88;;;2.05;;
34896;SDS011;43407;51.828;-2.298;2023-04-03T14:30:46;3.73;;;1.73;;
34896;SDS011;43407;51.828;-2.298;2023-04-03T14:33:14;4.25;;;1.83;;
34896;SDS011;43407;51.828;-2.298;2023-04-03T14:35:42;2.95;;;1.85;;
34896;SDS011;43407;51.828;-2.298;2023-04-03T14:38:12;3.50;;;2.10;;
34896;SDS011;43407;51.828;-2.298;2023-04-03T14:40:48;5.47;;;2.17;;
34896;SDS011;43407;51.828;-2.298;2023-04-03T14:43:15;4.68;;;2.47;;
34896;SDS011;43407;51.828;-2.298;2023-04-03T14:45:41;3.80;;;1.98;;
34896;SDS011;43407;51.828;-2.298;2023-04-03T14:48:09;4.60;;;2.78;;
34896;SDS011;43407;51.828;-2.298;2023-04-03T14:50:41;4.72;;;2.60;;
34896;SDS011;43407;51.828;-2.298;2023-04-03T14:53:07;5.95;;;2.83;;
34896;SDS011;43407;51.828;-2.298;2023-04-03T14:55:32;2.25;;;1.88;;
34896;SDS011;43407;51.828;-2.298;2023-04-03T14:57:58;4.72;;;2.50;;
34896;SDS011;43407;51.828;-2.298;2023-04-03T15:00:24;5.72;;;2.60;;
34896;SDS011;43407;51.828;-2.298;2023-04-03T15:02:50;5.97;;;2.85;;
34896;SDS011;43407;51.828;-2.298;2023-04-03T15:05:18;4.47;;;2.33;;
34896;SDS011;43407;51.828;-2.298;2023-04-03T15:07:49;4.68;;;2.55;;
34896;SDS011;43407;51.828;-2.298;2023-04-03T15:10:20;4.97;;;2.28;;
34896;SDS011;43407;51.828;-2.298;2023-04-03T15:12:49;5.03;;;2.22;;
34896;SDS011;43407;51.828;-2.298;2023-04-03T15:15:29;4.30;;;2.60;;
34896;SDS011;43407;51.828;-2.298;2023-04-03T15:17:55;6.40;;;2.65;;
34896;SDS011;43407;51.828;-2.298;2023-04-03T15:20:24;5.03;;;2.42;;
34896;SDS011;43407;51.828;-2.298;2023-04-03T15:22:51;6.05;;;2.55;;
34896;SDS011;43407;51.828;-2.298;2023-04-03T15:25:17;5.47;;;2.80;;
34896;SDS011;43407;51.828;-2.298;2023-04-03T15:27:43;6.55;;;2.90;;
34896;SDS011;43407;51.828;-2.298;2023-04-03T15:30:13;5.57;;;2.53;;
34896;SDS011;43407;51.828;-2.298;2023-04-03T15:32:41;5.47;;;2.80;;
34896;SDS011;43407;51.828;-2.298;2023-04-03T15:35:07;6.15;;;2.83;;
34896;SDS011;43407;51.828;-2.298;2023-04-03T15:37:33;4.75;;;2.25;;
34896;SDS011;43407;51.828;-2.298;2023-04-03T15:39:59;3.70;;;2.58;;
34896;SDS011;43407;51.828;-2.298;2023-04-03T15:42:25;4.70;;;2.38;;
34896;SDS011;43407;51.828;-2.298;2023-04-03T15:44:51;4.97;;;2.70;;
34896;SDS011;43407;51.828;-2.298;2023-04-03T15:47:16;5.80;;;2.80;;
34896;SDS011;43407;51.828;-2.298;2023-04-03T15:49:42;6.20;;;2.65;;
34896;SDS011;43407;51.828;-2.298;2023-04-03T15:52:08;4.95;;;2.83;;
34896;SDS011;43407;51.828;-2.298;2023-04-03T15:54:33;5.05;;;3.00;;
34896;SDS011;43407;51.828;-2.298;2023-04-03T15:56:59;5.72;;;2.40;;
34896;SDS011;43407;51.828;-2.298;2023-04-03T15:59:25;4.70;;;2.50;;
34896;SDS011;43407;51.828;-2.298;2023-04-03T16:01:51;4.25;;;2.08;;
34896;SDS011;43407;51.828;-2.298;2023-04-03T16:04:17;5.57;;;2.72;;
34896;SDS011;43407;51.828;-2.298;2023-04-03T16:06:45;7.22;;;3.03;;
34896;SDS011;43407;51.828;-2.298;2023-04-03T16:09:12;6.50;;;2.47;;
34896;SDS011;43407;51.828;-2.298;2023-04-03T16:11:37;4.40;;;2.53;;
34896;SDS011;43407;51.828;-2.298;2023-04-03T16:14:05;4.47;;;2.58;;
34896;SDS011;43407;51.828;-2.298;2023-04-03T16:16:32;4.90;;;2.35;;
34896;SDS011;43407;51.828;-2.298;2023-04-03T16:18:57;5.97;;;2.58;;